DAL247 KBNA-KLGA
Flight info
| Callsign | DAL247 |
|---|---|
| Flight time | N/A |
| Altitude | 37000 |
| Route | KRSTA4 OLSIE IIU Q139 CREEP Q29 WWSHR TEESY Q186 WEVEL ETG MIP4 |
| Aircraft | L101/H-SDFGHIRWXY/S |
Departure
| Time | 2026-05-06 20:08 |
|---|---|
| Airport | Nashville International Airport (KBNA) |
Arrival
| Time | N/A |
|---|---|
| Airport | LaGuardia Airport (KLGA) |
| Time | Latitude | Longitude | Altitude | Speed | Heading |
|---|---|---|---|---|---|
| 2026-05-06 19:49 | 36.13038 | -86.67057 | 574 ft | 0 kts | 92° |
| 2026-05-06 19:52 | 36.13038 | -86.67059 | 574 ft | 1 kts | 92° |
| 2026-05-06 19:52 | 36.13041 | -86.67090 | 576 ft | 3 kts | 100° |
| 2026-05-06 19:52 | 36.13045 | -86.67119 | 577 ft | 1 kts | 97° |
| 2026-05-06 19:52 | 36.13050 | -86.67149 | 574 ft | 3 kts | 123° |
| 2026-05-06 19:53 | 36.13069 | -86.67170 | 574 ft | 3 kts | 158° |
| 2026-05-06 19:53 | 36.13076 | -86.67174 | 577 ft | 9 kts | 162° |
| 2026-05-06 19:55 | 36.13076 | -86.67173 | 577 ft | 1 kts | 162° |
| 2026-05-06 19:55 | 36.13064 | -86.67169 | 574 ft | 0 kts | 162° |
| 2026-05-06 19:57 | 36.13063 | -86.67169 | 574 ft | 0 kts | 162° |
| 2026-05-06 19:57 | 36.13050 | -86.67163 | 574 ft | 2 kts | 164° |
| 2026-05-06 19:57 | 36.13026 | -86.67163 | 575 ft | 6 kts | 189° |
| 2026-05-06 19:57 | 36.12976 | -86.67195 | 574 ft | 11 kts | 219° |
| 2026-05-06 19:58 | 36.12905 | -86.67242 | 576 ft | 13 kts | 196° |
| 2026-05-06 19:58 | 36.12823 | -86.67310 | 581 ft | 15 kts | 221° |
| 2026-05-06 19:58 | 36.12746 | -86.67398 | 578 ft | 16 kts | 223° |
| 2026-05-06 19:58 | 36.12656 | -86.67473 | 581 ft | 16 kts | 210° |
| 2026-05-06 19:59 | 36.12589 | -86.67526 | 581 ft | 17 kts | 220° |
| 2026-05-06 19:59 | 36.12466 | -86.67654 | 585 ft | 18 kts | 206° |
| 2026-05-06 19:59 | 36.12339 | -86.67716 | 584 ft | 21 kts | 198° |
| 2026-05-06 19:59 | 36.12196 | -86.67775 | 585 ft | 22 kts | 198° |
| 2026-05-06 20:00 | 36.12040 | -86.67840 | 582 ft | 25 kts | 198° |
| 2026-05-06 20:00 | 36.11879 | -86.67905 | 584 ft | 22 kts | 198° |
| 2026-05-06 20:00 | 36.11794 | -86.67940 | 584 ft | 18 kts | 198° |
| 2026-05-06 20:00 | 36.11674 | -86.67988 | 584 ft | 13 kts | 198° |
| 2026-05-06 20:01 | 36.11593 | -86.68020 | 585 ft | 13 kts | 198° |
| 2026-05-06 20:01 | 36.11495 | -86.68059 | 585 ft | 17 kts | 198° |
| 2026-05-06 20:01 | 36.11377 | -86.68107 | 585 ft | 19 kts | 199° |
| 2026-05-06 20:01 | 36.11246 | -86.68161 | 587 ft | 20 kts | 199° |
| 2026-05-06 20:02 | 36.11136 | -86.68226 | 583 ft | 18 kts | 218° |
| 2026-05-06 20:02 | 36.11037 | -86.68331 | 580 ft | 16 kts | 222° |
| 2026-05-06 20:02 | 36.10932 | -86.68415 | 576 ft | 19 kts | 199° |
| 2026-05-06 20:02 | 36.10806 | -86.68466 | 579 ft | 17 kts | 198° |
| 2026-05-06 20:03 | 36.10685 | -86.68515 | 576 ft | 20 kts | 197° |
| 2026-05-06 20:03 | 36.10553 | -86.68566 | 578 ft | 20 kts | 198° |
| 2026-05-06 20:03 | 36.10445 | -86.68610 | 583 ft | 9 kts | 198° |
| 2026-05-06 20:03 | 36.10398 | -86.68629 | 583 ft | 3 kts | 198° |
| 2026-05-06 20:04 | 36.10392 | -86.68632 | 583 ft | 2 kts | 198° |
| 2026-05-06 20:04 | 36.10370 | -86.68641 | 583 ft | 4 kts | 198° |
| 2026-05-06 20:04 | 36.10343 | -86.68655 | 583 ft | 6 kts | 210° |
| 2026-05-06 20:05 | 36.10332 | -86.68670 | 583 ft | 0 kts | 236° |
| 2026-05-06 20:05 | 36.10331 | -86.68672 | 583 ft | 2 kts | 238° |
| 2026-05-06 20:05 | 36.10326 | -86.68709 | 585 ft | 7 kts | 273° |
| 2026-05-06 20:05 | 36.10343 | -86.68771 | 581 ft | 8 kts | 310° |
| 2026-05-06 20:06 | 36.10368 | -86.68784 | 580 ft | 2 kts | 358° |
| 2026-05-06 20:06 | 36.10382 | -86.68780 | 580 ft | 0 kts | 20° |
| 2026-05-06 20:07 | 36.10393 | -86.68775 | 580 ft | 4 kts | 20° |
| 2026-05-06 20:07 | 36.10649 | -86.68668 | 582 ft | 86 kts | 18° |
| 2026-05-06 20:07 | 36.11503 | -86.68332 | 679 ft | 158 kts | 17° |
| 2026-05-06 20:08 | 36.12560 | -86.67895 | 1743 ft | 163 kts | 17° |
| 2026-05-06 20:08 | 36.13655 | -86.67434 | 2835 ft | 170 kts | 17° |
| 2026-05-06 20:08 | 36.14865 | -86.66927 | 3569 ft | 200 kts | 18° |
| 2026-05-06 20:08 | 36.16302 | -86.66331 | 4026 ft | 238 kts | 16° |
| 2026-05-06 20:09 | 36.17962 | -86.65656 | 4161 ft | 266 kts | 15° |
| 2026-05-06 20:09 | 36.19834 | -86.64913 | 4403 ft | 297 kts | 16° |
| 2026-05-06 20:09 | 36.21813 | -86.64134 | 5278 ft | 286 kts | 15° |
| 2026-05-06 20:09 | 36.23661 | -86.63400 | 6305 ft | 286 kts | 14° |
| 2026-05-06 20:10 | 36.25595 | -86.62640 | 6726 ft | 296 kts | 13° |
| 2026-05-06 20:10 | 36.27571 | -86.61871 | 6967 ft | 299 kts | 13° |
| 2026-05-06 20:10 | 36.29568 | -86.61101 | 7154 ft | 300 kts | 13° |
| 2026-05-06 20:10 | 36.31563 | -86.60336 | 7310 ft | 301 kts | 12° |
| 2026-05-06 20:11 | 36.33569 | -86.59572 | 7435 ft | 303 kts | 12° |
| 2026-05-06 20:11 | 36.35668 | -86.58786 | 7886 ft | 321 kts | 12° |
| 2026-05-06 20:11 | 36.37790 | -86.57997 | 9041 ft | 311 kts | 12° |
| 2026-05-06 20:11 | 36.39818 | -86.57229 | 10297 ft | 303 kts | 11° |
| 2026-05-06 20:12 | 36.41872 | -86.56458 | 10929 ft | 319 kts | 9° |
| 2026-05-06 20:12 | 36.44104 | -86.55649 | 11132 ft | 348 kts | 9° |
| 2026-05-06 20:12 | 36.46538 | -86.54805 | 11234 ft | 377 kts | 9° |
| 2026-05-06 20:12 | 36.49160 | -86.53928 | 11350 ft | 403 kts | 8° |
| 2026-05-06 20:13 | 36.51946 | -86.53018 | 11689 ft | 421 kts | 8° |
| 2026-05-06 20:13 | 36.54782 | -86.52102 | 12718 ft | 417 kts | 8° |
| 2026-05-06 20:13 | 36.57556 | -86.51198 | 14026 ft | 410 kts | 7° |
| 2026-05-06 20:13 | 36.60338 | -86.50296 | 14726 ft | 420 kts | 7° |
| 2026-05-06 20:14 | 36.63231 | -86.49375 | 15049 ft | 438 kts | 6° |
| 2026-05-06 20:14 | 36.66196 | -86.48448 | 15893 ft | 440 kts | 6° |
| 2026-05-06 20:14 | 36.69140 | -86.47524 | 17190 ft | 432 kts | 5° |
| 2026-05-06 20:14 | 36.72067 | -86.46606 | 17965 ft | 439 kts | 5° |
| 2026-05-06 20:15 | 36.75098 | -86.45680 | 18342 ft | 455 kts | 4° |
| 2026-05-06 20:15 | 36.78186 | -86.44754 | 19258 ft | 456 kts | 4° |
| 2026-05-06 20:15 | 36.81260 | -86.43832 | 20314 ft | 456 kts | 4° |
| 2026-05-06 20:15 | 36.84390 | -86.42909 | 20791 ft | 469 kts | 3° |
| 2026-05-06 20:16 | 36.87585 | -86.41986 | 21628 ft | 472 kts | 3° |
| 2026-05-06 20:16 | 36.90809 | -86.41066 | 22370 ft | 479 kts | 3° |
| 2026-05-06 20:16 | 36.94072 | -86.40150 | 23162 ft | 484 kts | 2° |
| 2026-05-06 20:16 | 36.97384 | -86.39234 | 23859 ft | 491 kts | 2° |
| 2026-05-06 20:17 | 37.00749 | -86.38317 | 24534 ft | 498 kts | 2° |
| 2026-05-06 20:17 | 37.04152 | -86.37406 | 25309 ft | 503 kts | 1° |
| 2026-05-06 20:17 | 37.07597 | -86.36497 | 26024 ft | 508 kts | 1° |
| 2026-05-06 20:17 | 37.11066 | -86.35594 | 26720 ft | 513 kts | 1° |
| 2026-05-06 20:18 | 37.14575 | -86.34692 | 27386 ft | 518 kts | 1° |
| 2026-05-06 20:18 | 37.18137 | -86.33792 | 27965 ft | 523 kts | 0° |
| 2026-05-06 20:18 | 37.21719 | -86.32895 | 28588 ft | 528 kts | 0° |
| 2026-05-06 20:18 | 37.25333 | -86.32001 | 29202 ft | 531 kts | 0° |
| 2026-05-06 20:19 | 37.28945 | -86.31093 | 30043 ft | 529 kts | 0° |
| 2026-05-06 20:19 | 37.32548 | -86.30169 | 30812 ft | 528 kts | 0° |
| 2026-05-06 20:19 | 37.36124 | -86.29006 | 31621 ft | 539 kts | 8° |
| 2026-05-06 20:19 | 37.39594 | -86.27049 | 32412 ft | 554 kts | 19° |
| 2026-05-06 20:20 | 37.42904 | -86.24460 | 33086 ft | 564 kts | 24° |
| 2026-05-06 20:20 | 37.46102 | -86.21566 | 33611 ft | 569 kts | 26° |
| 2026-05-06 20:20 | 37.49242 | -86.18542 | 34175 ft | 570 kts | 27° |
| 2026-05-06 20:20 | 37.52376 | -86.15462 | 34698 ft | 570 kts | 27° |
| 2026-05-06 20:21 | 37.55496 | -86.12380 | 35273 ft | 570 kts | 27° |
| 2026-05-06 20:21 | 37.58614 | -86.09297 | 35747 ft | 569 kts | 27° |
| 2026-05-06 20:21 | 37.61724 | -86.06226 | 36256 ft | 568 kts | 27° |
| 2026-05-06 20:21 | 37.64844 | -86.03141 | 36631 ft | 571 kts | 27° |
| 2026-05-06 20:22 | 37.67973 | -86.00050 | 36799 ft | 571 kts | 27° |
| 2026-05-06 20:22 | 37.71096 | -85.96959 | 36909 ft | 570 kts | 27° |
| 2026-05-06 20:22 | 37.77295 | -85.90802 | 36957 ft | 564 kts | 27° |
| 2026-05-06 20:23 | 37.83437 | -85.84683 | 36953 ft | 560 kts | 27° |
| 2026-05-06 20:23 | 37.89549 | -85.78586 | 36953 ft | 560 kts | 27° |
| 2026-05-06 20:24 | 37.95670 | -85.72483 | 36952 ft | 559 kts | 27° |
| 2026-05-06 20:24 | 38.01794 | -85.66376 | 36955 ft | 560 kts | 27° |
| 2026-05-06 20:25 | 38.07913 | -85.60278 | 36955 ft | 558 kts | 25° |
| 2026-05-06 20:25 | 38.11099 | -85.57560 | 36952 ft | 543 kts | 17° |
| 2026-05-06 20:25 | 38.14388 | -85.55286 | 36977 ft | 537 kts | 14° |
| 2026-05-06 20:26 | 38.21000 | -85.50809 | 36974 ft | 541 kts | 16° |
| 2026-05-06 20:26 | 38.27591 | -85.46189 | 36971 ft | 540 kts | 15° |
| 2026-05-06 20:27 | 38.34152 | -85.41686 | 36967 ft | 539 kts | 15° |
| 2026-05-06 20:27 | 38.40760 | -85.37172 | 36971 ft | 539 kts | 15° |
| 2026-05-06 20:28 | 38.47410 | -85.32616 | 36974 ft | 539 kts | 15° |
| 2026-05-06 20:28 | 38.53978 | -85.28119 | 36978 ft | 539 kts | 15° |
| 2026-05-06 20:29 | 38.60581 | -85.23581 | 36976 ft | 539 kts | 15° |
| 2026-05-06 20:29 | 38.67188 | -85.19033 | 36981 ft | 539 kts | 15° |
| 2026-05-06 20:30 | 38.77080 | -85.12180 | 36976 ft | 539 kts | 15° |
| 2026-05-06 20:31 | 38.83669 | -85.07586 | 36976 ft | 539 kts | 15° |
| 2026-05-06 20:31 | 38.90276 | -85.02998 | 36974 ft | 539 kts | 15° |
| 2026-05-06 20:32 | 38.96871 | -84.98413 | 36968 ft | 539 kts | 15° |
| 2026-05-06 20:32 | 39.03472 | -84.93814 | 36965 ft | 538 kts | 15° |
| 2026-05-06 20:33 | 39.10046 | -84.89204 | 36965 ft | 538 kts | 15° |
| 2026-05-06 20:33 | 39.16604 | -84.84603 | 36965 ft | 537 kts | 15° |
| 2026-05-06 20:34 | 39.23176 | -84.79996 | 36971 ft | 537 kts | 15° |
| 2026-05-06 20:34 | 39.29742 | -84.75383 | 36971 ft | 537 kts | 15° |
| 2026-05-06 20:35 | 39.36308 | -84.70761 | 36977 ft | 537 kts | 15° |
| 2026-05-06 20:35 | 39.42870 | -84.66134 | 36979 ft | 538 kts | 15° |
| 2026-05-06 20:36 | 39.49448 | -84.61481 | 36973 ft | 539 kts | 15° |
| 2026-05-06 20:36 | 39.56040 | -84.56810 | 36967 ft | 540 kts | 15° |
| 2026-05-06 20:37 | 39.62584 | -84.52163 | 36971 ft | 540 kts | 15° |
| 2026-05-06 20:37 | 39.69222 | -84.47439 | 36973 ft | 540 kts | 15° |
| 2026-05-06 20:38 | 39.75759 | -84.42778 | 36978 ft | 540 kts | 15° |
| 2026-05-06 20:38 | 39.82342 | -84.38071 | 36968 ft | 540 kts | 15° |
| 2026-05-06 20:39 | 39.88924 | -84.33334 | 36961 ft | 544 kts | 19° |
| 2026-05-06 20:39 | 39.92057 | -84.30410 | 36938 ft | 563 kts | 31° |
| 2026-05-06 20:39 | 39.94928 | -84.26887 | 36983 ft | 570 kts | 34° |
| 2026-05-06 20:40 | 40.00664 | -84.19756 | 36972 ft | 568 kts | 32° |
| 2026-05-06 20:40 | 40.06473 | -84.12734 | 36961 ft | 570 kts | 33° |
| 2026-05-06 20:41 | 40.12202 | -84.05548 | 36956 ft | 571 kts | 34° |
| 2026-05-06 20:41 | 40.17905 | -83.98320 | 36955 ft | 571 kts | 34° |
| 2026-05-06 20:42 | 40.23607 | -83.91070 | 36956 ft | 571 kts | 34° |
| 2026-05-06 20:42 | 40.29306 | -83.83809 | 36956 ft | 571 kts | 34° |
| 2026-05-06 20:43 | 40.34951 | -83.76590 | 36949 ft | 571 kts | 34° |
| 2026-05-06 20:43 | 40.40660 | -83.69269 | 36957 ft | 570 kts | 34° |
| 2026-05-06 20:44 | 40.46326 | -83.61985 | 36957 ft | 571 kts | 36° |
| 2026-05-06 20:44 | 40.50961 | -83.55770 | 36948 ft | 572 kts | 36° |
| 2026-05-06 20:45 | 40.57547 | -83.47285 | 36948 ft | 570 kts | 34° |
| 2026-05-06 20:45 | 40.62302 | -83.41191 | 36945 ft | 570 kts | 35° |
| 2026-05-06 20:46 | 40.67940 | -83.33848 | 36939 ft | 571 kts | 37° |
| 2026-05-06 20:46 | 40.73091 | -83.25742 | 36953 ft | 581 kts | 45° |
| 2026-05-06 20:47 | 40.78018 | -83.17324 | 36948 ft | 579 kts | 44° |
| 2026-05-06 20:47 | 40.83008 | -83.08965 | 36945 ft | 580 kts | 45° |
| 2026-05-06 20:48 | 40.87962 | -83.00553 | 36936 ft | 580 kts | 45° |
| 2026-05-06 20:48 | 40.92869 | -82.92161 | 36935 ft | 580 kts | 45° |
| 2026-05-06 20:49 | 40.97793 | -82.83723 | 36931 ft | 579 kts | 45° |
| 2026-05-06 20:49 | 41.02709 | -82.75274 | 36927 ft | 579 kts | 45° |
| 2026-05-06 20:50 | 41.07620 | -82.66822 | 36930 ft | 579 kts | 45° |
| 2026-05-06 20:50 | 41.12508 | -82.58323 | 36918 ft | 581 kts | 48° |
| 2026-05-06 20:51 | 41.16637 | -82.49032 | 36938 ft | 588 kts | 58° |
| 2026-05-06 20:51 | 41.20482 | -82.39451 | 36929 ft | 588 kts | 57° |
| 2026-05-06 20:52 | 41.24413 | -82.29933 | 36936 ft | 588 kts | 57° |
| 2026-05-06 20:52 | 41.28290 | -82.20367 | 36937 ft | 587 kts | 57° |
| 2026-05-06 20:53 | 41.32101 | -82.10749 | 36912 ft | 590 kts | 63° |
| 2026-05-06 20:53 | 41.33410 | -82.05593 | 36881 ft | 590 kts | 80° |
| 2026-05-06 20:53 | 41.33896 | -82.00198 | 36942 ft | 587 kts | 88° |
| 2026-05-06 20:54 | 41.34623 | -81.89309 | 36934 ft | 592 kts | 85° |
| 2026-05-06 20:54 | 41.35489 | -81.78422 | 36925 ft | 591 kts | 87° |
| 2026-05-06 20:55 | 41.36087 | -81.67575 | 36928 ft | 591 kts | 88° |
| 2026-05-06 20:55 | 41.36613 | -81.56668 | 36936 ft | 591 kts | 89° |
| 2026-05-06 20:56 | 41.37120 | -81.45762 | 36930 ft | 591 kts | 88° |
| 2026-05-06 20:56 | 41.37613 | -81.34828 | 36932 ft | 592 kts | 89° |
| 2026-05-06 20:57 | 41.38092 | -81.23885 | 36922 ft | 592 kts | 89° |
| 2026-05-06 20:57 | 41.38559 | -81.12946 | 36918 ft | 592 kts | 88° |
| 2026-05-06 20:58 | 41.39016 | -81.02008 | 36923 ft | 592 kts | 89° |
| 2026-05-06 20:58 | 41.39463 | -80.91063 | 36921 ft | 591 kts | 89° |
| 2026-05-06 20:59 | 41.39901 | -80.80124 | 36923 ft | 591 kts | 89° |
| 2026-05-06 20:59 | 41.40323 | -80.69206 | 36926 ft | 590 kts | 89° |
| 2026-05-06 21:00 | 41.40738 | -80.58266 | 36909 ft | 590 kts | 89° |
| 2026-05-06 21:00 | 41.41143 | -80.47350 | 36909 ft | 590 kts | 89° |
| 2026-05-06 21:01 | 41.41539 | -80.36436 | 36910 ft | 589 kts | 89° |
| 2026-05-06 21:01 | 41.41919 | -80.25532 | 36901 ft | 589 kts | 89° |
| 2026-05-06 21:02 | 41.42249 | -80.14633 | 36891 ft | 587 kts | 93° |
| 2026-05-06 21:02 | 41.41450 | -80.03900 | 36914 ft | 581 kts | 103° |
| 2026-05-06 21:03 | 41.40339 | -79.93224 | 36899 ft | 583 kts | 101° |
| 2026-05-06 21:03 | 41.39366 | -79.82510 | 36897 ft | 582 kts | 101° |
| 2026-05-06 21:04 | 41.38341 | -79.71885 | 36908 ft | 582 kts | 101° |
| 2026-05-06 21:04 | 41.37278 | -79.61114 | 36896 ft | 583 kts | 102° |
| 2026-05-06 21:05 | 41.36217 | -79.50426 | 36898 ft | 583 kts | 102° |
| 2026-05-06 21:05 | 41.35151 | -79.39786 | 36888 ft | 583 kts | 102° |
| 2026-05-06 21:06 | 41.34070 | -79.29092 | 36881 ft | 583 kts | 102° |
| 2026-05-06 21:06 | 41.32974 | -79.18401 | 36870 ft | 584 kts | 102° |
| 2026-05-06 21:07 | 41.31866 | -79.07692 | 36862 ft | 585 kts | 102° |
| 2026-05-06 21:07 | 41.30751 | -78.96971 | 36858 ft | 585 kts | 102° |
| 2026-05-06 21:08 | 41.29624 | -78.86270 | 36854 ft | 584 kts | 102° |
| 2026-05-06 21:08 | 41.28414 | -78.75593 | 36857 ft | 584 kts | 103° |
| 2026-05-06 21:09 | 41.27195 | -78.64910 | 36854 ft | 584 kts | 102° |
| 2026-05-06 21:09 | 41.26024 | -78.54229 | 36855 ft | 584 kts | 102° |
| 2026-05-06 21:10 | 41.24852 | -78.43549 | 36854 ft | 584 kts | 102° |
| 2026-05-06 21:10 | 41.23643 | -78.32878 | 36854 ft | 585 kts | 102° |
| 2026-05-06 21:11 | 41.22439 | -78.22197 | 36853 ft | 585 kts | 102° |
| 2026-05-06 21:11 | 41.21215 | -78.11518 | 36855 ft | 584 kts | 103° |
| 2026-05-06 21:12 | 41.19883 | -78.00881 | 36849 ft | 584 kts | 103° |
| 2026-05-06 21:12 | 41.18558 | -77.90242 | 36842 ft | 584 kts | 103° |
| 2026-05-06 21:13 | 41.17249 | -77.79686 | 36732 ft | 583 kts | 103° |
| 2026-05-06 21:13 | 41.16606 | -77.74513 | 32450 ft | 537 kts | 103° |
| 2026-05-06 21:13 | 41.16048 | -77.69593 | 25097 ft | 565 kts | 99° |
| 2026-05-06 21:13 | 41.15853 | -77.64399 | 18839 ft | 552 kts | 94° |
| 2026-05-06 21:14 | 41.15386 | -77.59577 | 11213 ft | 493 kts | 111° |
| 2026-05-06 21:14 | 41.14097 | -77.56344 | 1626 ft | 4 kts | 207° |
| 2026-05-06 21:14 | 41.14095 | -77.56344 | 1591 ft | 0 kts | 210° |